This is the latest recevied weather packets stored in our database for station/object KW4UJ. If no packets are shown the sender has not sent any weather packets the latest 10 day(s).
| Time | Temp. | Humidity | Pressure | Rain* | Wind** | Luminosity | Snow |
|---|---|---|---|---|---|---|---|
| 1777302029 | 16.67° C | 58% | 1024.9 hPa | 0 mm | - | 295 W/m² | - |
| 1777301728 | 17.22° C | 60% | 1024.7 hPa | 0 mm | - | 513 W/m² | - |
| 1777301424 | 16.67° C | 59% | 1024.8 hPa | 0 mm | - | 524 W/m² | - |
| 1777301121 | 16.11° C | 59% | 1024.9 hPa | 0 mm | - | 509 W/m² | - |
| 1777300818 | 15.56° C | 61% | 1024.9 hPa | 0 mm | - | 509 W/m² | - |
| 1777300516 | 16.11° C | 60% | 1025.1 hPa | 0 mm | - | 513 W/m² | - |
| 1777300214 | 15.56° C | 62% | 1025 hPa | 0 mm | - | 484 W/m² | - |
| 1777299909 | 15.56° C | 62% | 1024.9 hPa | 0 mm | - | 469 W/m² | - |
| 1777299607 | 16.11° C | 59% | 1025 hPa | 0 mm | - | 461 W/m² | - |
| 1777299305 | 15° C | 62% | 1025.1 hPa | 0 mm | - | 419 W/m² | - |
| 1777299001 | 15.56° C | 62% | 1025.1 hPa | 0 mm | - | 236 W/m² | - |
| 1777298699 | 15.56° C | 61% | 1024.9 hPa | 0 mm | - | 62 W/m² | - |
| 1777298395 | 15.56° C | 61% | 1024.8 hPa | 0 mm | - | 408 W/m² | - |
| 1777298092 | 15.56° C | 63% | 1024.7 hPa | 0 mm | - | 398 W/m² | - |
| 1777297790 | 15.56° C | 64% | 1024.8 hPa | 0 mm | - | 388 W/m² | - |
| 1777297489 | 15.56° C | 64% | 1024.9 hPa | 0 mm | - | 376 W/m² | - |
| 1777297186 | 15.56° C | 64% | 1024.8 hPa | 0 mm | - | 362 W/m² | - |
| 1777296884 | 15° C | 66% | 1024.7 hPa | 0 mm | - | 343 W/m² | - |
| 1777296579 | 14.44° C | 68% | 1024.7 hPa | 0 mm | - | 333 W/m² | - |
| 1777296245 | 14.44° C | 68% | 1024.8 hPa | 0 mm | - | 326 W/m² | - |
| 1777295941 | 15° C | 68% | 1024.6 hPa | 0 mm | - | 314 W/m² | - |
| 1777295639 | 14.44° C | 71% | 1024.6 hPa | 0 mm | - | 299 W/m² | - |
| 1777295336 | 14.44° C | 70% | 1024.6 hPa | 0 mm | - | 279 W/m² | - |
| 1777295034 | 14.44° C | 70% | 1024.5 hPa | 0 mm | - | 268 W/m² | - |
| 1777294730 | 13.89° C | 71% | 1024.4 hPa | 0 mm | - | 222 W/m² | - |
* Rain latest hour (hover to see other rain measurements)
** Current wind speed in m/s (hover to see current wind gust speed)